sensor_id;sensor_type;location;lat;lon;timestamp;P1;durP1;ratioP1;P2;durP2;ratioP2
27412;SDS011;14871;52.702;5.230;2022-09-09T00:02:05;5.43;;;4.10;;
27412;SDS011;14871;52.702;5.230;2022-09-09T00:04:42;7.13;;;4.40;;
27412;SDS011;14871;52.702;5.230;2022-09-09T00:10:15;9.93;;;5.57;;
27412;SDS011;14871;52.702;5.230;2022-09-09T00:12:58;9.40;;;4.60;;
27412;SDS011;14871;52.702;5.230;2022-09-09T00:18:21;6.72;;;3.92;;
27412;SDS011;14871;52.702;5.230;2022-09-09T00:21:05;8.25;;;3.40;;
27412;SDS011;14871;52.702;5.230;2022-09-09T00:23:35;4.82;;;3.20;;
27412;SDS011;14871;52.702;5.230;2022-09-09T00:31:33;3.58;;;1.83;;
27412;SDS011;14871;52.702;5.230;2022-09-09T00:34:32;3.58;;;1.90;;
27412;SDS011;14871;52.702;5.230;2022-09-09T00:36:52;4.45;;;1.90;;
27412;SDS011;14871;52.702;5.230;2022-09-09T00:39:27;2.63;;;1.70;;
27412;SDS011;14871;52.702;5.230;2022-09-09T00:42:13;4.10;;;1.98;;
27412;SDS011;14871;52.702;5.230;2022-09-09T00:50:12;2.90;;;1.38;;
27412;SDS011;14871;52.702;5.230;2022-09-09T00:53:02;3.25;;;1.30;;
27412;SDS011;14871;52.702;5.230;2022-09-09T00:58:14;6.55;;;1.80;;
27412;SDS011;14871;52.702;5.230;2022-09-09T01:11:22;3.20;;;2.00;;
27412;SDS011;14871;52.702;5.230;2022-09-09T01:14:42;4.25;;;2.08;;
27412;SDS011;14871;52.702;5.230;2022-09-09T01:16:50;5.72;;;2.38;;
27412;SDS011;14871;52.702;5.230;2022-09-09T01:20:02;3.85;;;2.45;;
27412;SDS011;14871;52.702;5.230;2022-09-09T01:22:32;4.90;;;2.78;;
27412;SDS011;14871;52.702;5.230;2022-09-09T01:27:30;6.75;;;3.63;;
27412;SDS011;14871;52.702;5.230;2022-09-09T01:29:57;5.43;;;3.63;;
27412;SDS011;14871;52.702;5.230;2022-09-09T01:35:46;8.25;;;4.07;;
27412;SDS011;14871;52.702;5.230;2022-09-09T01:38:22;6.57;;;4.53;;
27412;SDS011;14871;52.702;5.230;2022-09-09T01:40:50;9.93;;;4.75;;
27412;SDS011;14871;52.702;5.230;2022-09-09T01:43:18;8.32;;;4.82;;
27412;SDS011;14871;52.702;5.230;2022-09-09T01:45:47;7.80;;;4.82;;
27412;SDS011;14871;52.702;5.230;2022-09-09T01:48:17;11.68;;;6.25;;
27412;SDS011;14871;52.702;5.230;2022-09-09T01:50:44;12.18;;;6.50;;
27412;SDS011;14871;52.702;5.230;2022-09-09T01:53:10;8.93;;;6.03;;
27412;SDS011;14871;52.702;5.230;2022-09-09T01:55:37;8.52;;;6.20;;
27412;SDS011;14871;52.702;5.230;2022-09-09T02:00:36;11.35;;;7.07;;
27412;SDS011;14871;52.702;5.230;2022-09-09T02:05:47;13.40;;;8.15;;
27412;SDS011;14871;52.702;5.230;2022-09-09T02:08:20;15.15;;;8.75;;
27412;SDS011;14871;52.702;5.230;2022-09-09T02:11:15;12.70;;;8.80;;
27412;SDS011;14871;52.702;5.230;2022-09-09T02:13:41;13.23;;;8.63;;
27412;SDS011;14871;52.702;5.230;2022-09-09T02:16:17;13.18;;;9.10;;
27412;SDS011;14871;52.702;5.230;2022-09-09T02:21:42;15.38;;;10.43;;
27412;SDS011;14871;52.702;5.230;2022-09-09T02:24:10;17.67;;;11.82;;
27412;SDS011;14871;52.702;5.230;2022-09-09T02:26:39;19.73;;;11.70;;
27412;SDS011;14871;52.702;5.230;2022-09-09T02:29:14;18.10;;;11.27;;
27412;SDS011;14871;52.702;5.230;2022-09-09T02:31:44;17.35;;;11.85;;
27412;SDS011;14871;52.702;5.230;2022-09-09T02:34:12;16.35;;;11.88;;
27412;SDS011;14871;52.702;5.230;2022-09-09T02:36:40;21.58;;;12.93;;
27412;SDS011;14871;52.702;5.230;2022-09-09T02:39:08;15.60;;;12.05;;
27412;SDS011;14871;52.702;5.230;2022-09-09T02:41:36;19.63;;;13.63;;
27412;SDS011;14871;52.702;5.230;2022-09-09T02:44:11;16.63;;;13.27;;
27412;SDS011;14871;52.702;5.230;2022-09-09T02:55:16;16.90;;;12.95;;
27412;SDS011;14871;52.702;5.230;2022-09-09T02:57:50;19.05;;;14.88;;
27412;SDS011;14871;52.702;5.230;2022-09-09T03:00:22;18.85;;;14.80;;
27412;SDS011;14871;52.702;5.230;2022-09-09T03:02:49;19.55;;;14.63;;
27412;SDS011;14871;52.702;5.230;2022-09-09T03:05:16;23.75;;;15.43;;
27412;SDS011;14871;52.702;5.230;2022-09-09T03:07:43;22.70;;;16.23;;
27412;SDS011;14871;52.702;5.230;2022-09-09T03:10:08;17.05;;;15.20;;
27412;SDS011;14871;52.702;5.230;2022-09-09T03:12:35;22.15;;;16.30;;
27412;SDS011;14871;52.702;5.230;2022-09-09T03:15:01;22.20;;;15.68;;
27412;SDS011;14871;52.702;5.230;2022-09-09T03:17:26;20.77;;;15.65;;
27412;SDS011;14871;52.702;5.230;2022-09-09T03:19:53;19.73;;;14.88;;
27412;SDS011;14871;52.702;5.230;2022-09-09T03:22:20;18.55;;;14.35;;
27412;SDS011;14871;52.702;5.230;2022-09-09T03:24:46;16.88;;;13.73;;
27412;SDS011;14871;52.702;5.230;2022-09-09T03:27:12;21.70;;;15.40;;
27412;SDS011;14871;52.702;5.230;2022-09-09T03:29:39;19.00;;;13.43;;
27412;SDS011;14871;52.702;5.230;2022-09-09T03:32:05;15.75;;;12.75;;
27412;SDS011;14871;52.702;5.230;2022-09-09T03:34:31;16.60;;;13.05;;
27412;SDS011;14871;52.702;5.230;2022-09-09T03:36:56;18.95;;;13.00;;
27412;SDS011;14871;52.702;5.230;2022-09-09T03:39:22;14.77;;;11.05;;
27412;SDS011;14871;52.702;5.230;2022-09-09T03:41:48;19.50;;;10.82;;
27412;SDS011;14871;52.702;5.230;2022-09-09T03:44:13;13.88;;;11.00;;
27412;SDS011;14871;52.702;5.230;2022-09-09T03:46:39;15.20;;;10.25;;
27412;SDS011;14871;52.702;5.230;2022-09-09T03:49:05;15.05;;;9.23;;
27412;SDS011;14871;52.702;5.230;2022-09-09T03:51:30;13.15;;;9.43;;
27412;SDS011;14871;52.702;5.230;2022-09-09T03:53:56;14.43;;;9.40;;
27412;SDS011;14871;52.702;5.230;2022-09-09T03:56:23;15.75;;;9.85;;
27412;SDS011;14871;52.702;5.230;2022-09-09T03:58:49;13.48;;;9.23;;
27412;SDS011;14871;52.702;5.230;2022-09-09T04:01:14;15.00;;;9.07;;
27412;SDS011;14871;52.702;5.230;2022-09-09T04:03:42;13.80;;;9.43;;
27412;SDS011;14871;52.702;5.230;2022-09-09T04:06:13;17.73;;;9.02;;
27412;SDS011;14871;52.702;5.230;2022-09-09T04:08:40;12.35;;;8.30;;
27412;SDS011;14871;52.702;5.230;2022-09-09T04:11:06;10.38;;;7.35;;
27412;SDS011;14871;52.702;5.230;2022-09-09T04:13:33;9.27;;;7.32;;
27412;SDS011;14871;52.702;5.230;2022-09-09T04:16:00;14.63;;;7.47;;
27412;SDS011;14871;52.702;5.230;2022-09-09T04:18:27;10.52;;;6.50;;
27412;SDS011;14871;52.702;5.230;2022-09-09T04:20:56;12.32;;;7.25;;
27412;SDS011;14871;52.702;5.230;2022-09-09T04:23:22;13.75;;;7.32;;
27412;SDS011;14871;52.702;5.230;2022-09-09T04:25:53;11.40;;;6.68;;
27412;SDS011;14871;52.702;5.230;2022-09-09T04:28:21;11.15;;;6.75;;
27412;SDS011;14871;52.702;5.230;2022-09-09T04:30:48;14.85;;;7.57;;
27412;SDS011;14871;52.702;5.230;2022-09-09T04:33:14;11.68;;;7.13;;
27412;SDS011;14871;52.702;5.230;2022-09-09T04:35:47;11.70;;;7.72;;
27412;SDS011;14871;52.702;5.230;2022-09-09T04:38:14;12.75;;;8.20;;
27412;SDS011;14871;52.702;5.230;2022-09-09T04:40:46;10.10;;;7.53;;
27412;SDS011;14871;52.702;5.230;2022-09-09T04:43:12;11.18;;;6.90;;
27412;SDS011;14871;52.702;5.230;2022-09-09T04:45:39;11.05;;;7.38;;
27412;SDS011;14871;52.702;5.230;2022-09-09T04:48:06;11.20;;;7.88;;
27412;SDS011;14871;52.702;5.230;2022-09-09T04:50:33;11.25;;;7.50;;
27412;SDS011;14871;52.702;5.230;2022-09-09T04:53:02;14.90;;;7.78;;
27412;SDS011;14871;52.702;5.230;2022-09-09T04:55:30;11.07;;;8.25;;
27412;SDS011;14871;52.702;5.230;2022-09-09T04:57:56;12.98;;;7.53;;
27412;SDS011;14871;52.702;5.230;2022-09-09T05:00:22;12.30;;;8.02;;
27412;SDS011;14871;52.702;5.230;2022-09-09T05:02:48;12.13;;;7.43;;
27412;SDS011;14871;52.702;5.230;2022-09-09T05:05:14;14.68;;;8.10;;
27412;SDS011;14871;52.702;5.230;2022-09-09T05:07:40;11.13;;;7.13;;
27412;SDS011;14871;52.702;5.230;2022-09-09T05:10:06;10.20;;;6.78;;
27412;SDS011;14871;52.702;5.230;2022-09-09T05:12:32;11.65;;;6.82;;
27412;SDS011;14871;52.702;5.230;2022-09-09T05:14:58;10.45;;;6.45;;
27412;SDS011;14871;52.702;5.230;2022-09-09T05:17:23;9.57;;;7.25;;
27412;SDS011;14871;52.702;5.230;2022-09-09T05:19:49;10.30;;;6.13;;
27412;SDS011;14871;52.702;5.230;2022-09-09T05:22:18;7.30;;;5.55;;
27412;SDS011;14871;52.702;5.230;2022-09-09T05:24:48;10.85;;;6.63;;
27412;SDS011;14871;52.702;5.230;2022-09-09T05:27:15;7.72;;;5.90;;
27412;SDS011;14871;52.702;5.230;2022-09-09T05:29:43;8.48;;;6.20;;
27412;SDS011;14871;52.702;5.230;2022-09-09T05:32:09;9.30;;;6.55;;
27412;SDS011;14871;52.702;5.230;2022-09-09T05:34:35;9.90;;;6.28;;
27412;SDS011;14871;52.702;5.230;2022-09-09T05:37:02;11.80;;;5.97;;
27412;SDS011;14871;52.702;5.230;2022-09-09T05:39:29;10.48;;;6.18;;
27412;SDS011;14871;52.702;5.230;2022-09-09T05:41:55;9.65;;;5.72;;
27412;SDS011;14871;52.702;5.230;2022-09-09T05:44:20;13.73;;;5.82;;
27412;SDS011;14871;52.702;5.230;2022-09-09T05:46:48;8.75;;;5.72;;
27412;SDS011;14871;52.702;5.230;2022-09-09T05:49:14;10.27;;;4.97;;
27412;SDS011;14871;52.702;5.230;2022-09-09T05:51:40;10.00;;;5.35;;
27412;SDS011;14871;52.702;5.230;2022-09-09T05:54:07;9.73;;;5.30;;
27412;SDS011;14871;52.702;5.230;2022-09-09T05:56:34;8.60;;;5.13;;
27412;SDS011;14871;52.702;5.230;2022-09-09T05:59:00;11.07;;;4.50;;
27412;SDS011;14871;52.702;5.230;2022-09-09T06:01:27;8.55;;;4.00;;
27412;SDS011;14871;52.702;5.230;2022-09-09T06:03:55;9.23;;;5.28;;
27412;SDS011;14871;52.702;5.230;2022-09-09T06:06:22;8.38;;;4.53;;
27412;SDS011;14871;52.702;5.230;2022-09-09T06:08:56;7.65;;;4.32;;
27412;SDS011;14871;52.702;5.230;2022-09-09T06:11:24;9.90;;;5.18;;
27412;SDS011;14871;52.702;5.230;2022-09-09T06:13:51;9.20;;;4.30;;
27412;SDS011;14871;52.702;5.230;2022-09-09T06:16:19;8.52;;;4.72;;
27412;SDS011;14871;52.702;5.230;2022-09-09T06:18:49;7.53;;;4.25;;
27412;SDS011;14871;52.702;5.230;2022-09-09T06:21:19;8.52;;;4.38;;
27412;SDS011;14871;52.702;5.230;2022-09-09T06:23:46;9.23;;;4.60;;
27412;SDS011;14871;52.702;5.230;2022-09-09T06:26:13;8.32;;;4.32;;
27412;SDS011;14871;52.702;5.230;2022-09-09T06:28:43;8.07;;;4.20;;
27412;SDS011;14871;52.702;5.230;2022-09-09T06:31:11;6.57;;;3.38;;
27412;SDS011;14871;52.702;5.230;2022-09-09T06:33:38;9.93;;;5.57;;
27412;SDS011;14871;52.702;5.230;2022-09-09T06:36:06;12.52;;;6.07;;
27412;SDS011;14871;52.702;5.230;2022-09-09T06:38:39;9.43;;;4.70;;
27412;SDS011;14871;52.702;5.230;2022-09-09T06:41:05;7.20;;;4.25;;
27412;SDS011;14871;52.702;5.230;2022-09-09T06:43:31;9.20;;;4.63;;
27412;SDS011;14871;52.702;5.230;2022-09-09T06:45:58;12.80;;;4.10;;
27412;SDS011;14871;52.702;5.230;2022-09-09T06:48:28;10.10;;;4.97;;
27412;SDS011;14871;52.702;5.230;2022-09-09T06:51:01;9.20;;;4.45;;
27412;SDS011;14871;52.702;5.230;2022-09-09T06:53:29;13.63;;;5.30;;
27412;SDS011;14871;52.702;5.230;2022-09-09T06:55:56;13.18;;;5.15;;
27412;SDS011;14871;52.702;5.230;2022-09-09T06:58:21;8.20;;;4.00;;
27412;SDS011;14871;52.702;5.230;2022-09-09T07:00:47;11.10;;;4.65;;
27412;SDS011;14871;52.702;5.230;2022-09-09T07:03:13;10.30;;;4.50;;
27412;SDS011;14871;52.702;5.230;2022-09-09T07:05:38;6.80;;;4.30;;
27412;SDS011;14871;52.702;5.230;2022-09-09T07:08:04;9.73;;;4.38;;
27412;SDS011;14871;52.702;5.230;2022-09-09T07:10:30;7.20;;;3.80;;
27412;SDS011;14871;52.702;5.230;2022-09-09T07:12:56;11.52;;;3.75;;
27412;SDS011;14871;52.702;5.230;2022-09-09T07:15:22;10.60;;;4.45;;
27412;SDS011;14871;52.702;5.230;2022-09-09T07:17:48;10.82;;;4.63;;
27412;SDS011;14871;52.702;5.230;2022-09-09T07:20:14;13.30;;;4.28;;
27412;SDS011;14871;52.702;5.230;2022-09-09T07:22:40;12.45;;;4.45;;
27412;SDS011;14871;52.702;5.230;2022-09-09T07:25:06;11.80;;;3.95;;
27412;SDS011;14871;52.702;5.230;2022-09-09T07:27:32;8.50;;;3.55;;
27412;SDS011;14871;52.702;5.230;2022-09-09T07:29:58;9.00;;;4.00;;
27412;SDS011;14871;52.702;5.230;2022-09-09T07:32:24;8.30;;;3.78;;
27412;SDS011;14871;52.702;5.230;2022-09-09T07:34:50;8.77;;;3.78;;
27412;SDS011;14871;52.702;5.230;2022-09-09T07:37:16;9.25;;;4.13;;
27412;SDS011;14871;52.702;5.230;2022-09-09T07:39:42;9.50;;;4.97;;
27412;SDS011;14871;52.702;5.230;2022-09-09T07:42:08;12.25;;;4.30;;
27412;SDS011;14871;52.702;5.230;2022-09-09T07:44:36;8.40;;;4.32;;
27412;SDS011;14871;52.702;5.230;2022-09-09T07:47:04;5.43;;;3.08;;
27412;SDS011;14871;52.702;5.230;2022-09-09T07:49:30;11.10;;;3.83;;
27412;SDS011;14871;52.702;5.230;2022-09-09T07:51:56;8.95;;;3.65;;
27412;SDS011;14871;52.702;5.230;2022-09-09T07:54:22;10.13;;;4.32;;
27412;SDS011;14871;52.702;5.230;2022-09-09T07:56:48;10.23;;;3.95;;
27412;SDS011;14871;52.702;5.230;2022-09-09T07:59:15;11.50;;;3.88;;
27412;SDS011;14871;52.702;5.230;2022-09-09T08:01:43;9.60;;;4.55;;
27412;SDS011;14871;52.702;5.230;2022-09-09T08:04:11;9.80;;;5.32;;
27412;SDS011;14871;52.702;5.230;2022-09-09T08:06:46;9.82;;;4.72;;
27412;SDS011;14871;52.702;5.230;2022-09-09T08:09:17;12.95;;;5.07;;
27412;SDS011;14871;52.702;5.230;2022-09-09T08:11:44;10.77;;;5.55;;
27412;SDS011;14871;52.702;5.230;2022-09-09T08:14:10;12.50;;;5.97;;
27412;SDS011;14871;52.702;5.230;2022-09-09T08:16:38;14.48;;;6.47;;
27412;SDS011;14871;52.702;5.230;2022-09-09T08:19:05;10.50;;;6.05;;
27412;SDS011;14871;52.702;5.230;2022-09-09T08:21:32;11.73;;;6.15;;
27412;SDS011;14871;52.702;5.230;2022-09-09T08:23:59;9.32;;;5.35;;
27412;SDS011;14871;52.702;5.230;2022-09-09T08:26:30;6.82;;;4.53;;
27412;SDS011;14871;52.702;5.230;2022-09-09T08:28:58;11.77;;;5.10;;
27412;SDS011;14871;52.702;5.230;2022-09-09T08:31:28;9.80;;;4.50;;
27412;SDS011;14871;52.702;5.230;2022-09-09T08:33:58;8.30;;;4.20;;
27412;SDS011;14871;52.702;5.230;2022-09-09T08:36:25;11.52;;;4.65;;
27412;SDS011;14871;52.702;5.230;2022-09-09T08:38:54;11.27;;;4.72;;
27412;SDS011;14871;52.702;5.230;2022-09-09T08:44:23;9.60;;;4.70;;
27412;SDS011;14871;52.702;5.230;2022-09-09T08:49:38;13.10;;;5.75;;
27412;SDS011;14871;52.702;5.230;2022-09-09T08:52:28;8.10;;;4.80;;
27412;SDS011;14871;52.702;5.230;2022-09-09T08:55:03;8.45;;;4.50;;
27412;SDS011;14871;52.702;5.230;2022-09-09T08:57:50;10.13;;;4.30;;
27412;SDS011;14871;52.702;5.230;2022-09-09T09:00:18;11.90;;;4.63;;
27412;SDS011;14871;52.702;5.230;2022-09-09T09:02:57;8.27;;;4.47;;
27412;SDS011;14871;52.702;5.230;2022-09-09T09:05:41;8.85;;;4.22;;
27412;SDS011;14871;52.702;5.230;2022-09-09T09:08:47;8.60;;;4.38;;
27412;SDS011;14871;52.702;5.230;2022-09-09T09:11:12;8.23;;;4.80;;
27412;SDS011;14871;52.702;5.230;2022-09-09T09:16:32;9.73;;;4.43;;
27412;SDS011;14871;52.702;5.230;2022-09-09T09:19:03;11.77;;;4.95;;
27412;SDS011;14871;52.702;5.230;2022-09-09T09:21:43;9.20;;;4.00;;
27412;SDS011;14871;52.702;5.230;2022-09-09T09:27:06;9.93;;;4.15;;
27412;SDS011;14871;52.702;5.230;2022-09-09T09:29:40;10.68;;;5.07;;
27412;SDS011;14871;52.702;5.230;2022-09-09T09:32:09;10.65;;;4.60;;
27412;SDS011;14871;52.702;5.230;2022-09-09T09:34:38;9.70;;;4.07;;
27412;SDS011;14871;52.702;5.230;2022-09-09T09:37:17;6.28;;;3.33;;
27412;SDS011;14871;52.702;5.230;2022-09-09T09:39:48;6.85;;;3.85;;
27412;SDS011;14871;52.702;5.230;2022-09-09T09:42:15;7.07;;;3.45;;
27412;SDS011;14871;52.702;5.230;2022-09-09T09:44:42;7.97;;;3.55;;
27412;SDS011;14871;52.702;5.230;2022-09-09T09:47:13;7.40;;;3.60;;
27412;SDS011;14871;52.702;5.230;2022-09-09T09:50:01;8.07;;;3.35;;
27412;SDS011;14871;52.702;5.230;2022-09-09T09:52:28;10.02;;;3.65;;
27412;SDS011;14871;52.702;5.230;2022-09-09T09:54:55;9.10;;;4.70;;
27412;SDS011;14871;52.702;5.230;2022-09-09T09:57:27;6.82;;;3.70;;
27412;SDS011;14871;52.702;5.230;2022-09-09T10:02:50;6.35;;;3.22;;
27412;SDS011;14871;52.702;5.230;2022-09-09T10:05:21;8.52;;;3.53;;
27412;SDS011;14871;52.702;5.230;2022-09-09T10:08:08;8.35;;;3.70;;
27412;SDS011;14871;52.702;5.230;2022-09-09T10:15:48;7.85;;;3.50;;
27412;SDS011;14871;52.702;5.230;2022-09-09T10:18:41;10.77;;;4.03;;
27412;SDS011;14871;52.702;5.230;2022-09-09T10:26:50;8.98;;;3.15;;
27412;SDS011;14871;52.702;5.230;2022-09-09T10:37:58;9.35;;;2.90;;
27412;SDS011;14871;52.702;5.230;2022-09-09T10:43:30;11.23;;;3.45;;
27412;SDS011;14871;52.702;5.230;2022-09-09T10:51:33;6.82;;;2.95;;
27412;SDS011;14871;52.702;5.230;2022-09-09T10:54:12;9.13;;;3.50;;
27412;SDS011;14871;52.702;5.230;2022-09-09T10:57:04;9.18;;;2.55;;
27412;SDS011;14871;52.702;5.230;2022-09-09T10:59:42;9.93;;;3.08;;
27412;SDS011;14871;52.702;5.230;2022-09-09T11:02:15;7.88;;;2.80;;
27412;SDS011;14871;52.702;5.230;2022-09-09T11:04:53;5.47;;;1.87;;
27412;SDS011;14871;52.702;5.230;2022-09-09T11:07:39;10.95;;;3.00;;
27412;SDS011;14871;52.702;5.230;2022-09-09T11:12:49;5.53;;;2.55;;
27412;SDS011;14871;52.702;5.230;2022-09-09T11:15:20;8.30;;;3.35;;
27412;SDS011;14871;52.702;5.230;2022-09-09T11:17:52;10.23;;;2.50;;
27412;SDS011;14871;52.702;5.230;2022-09-09T11:20:21;7.22;;;2.50;;
27412;SDS011;14871;52.702;5.230;2022-09-09T11:23:01;11.55;;;2.72;;
27412;SDS011;14871;52.702;5.230;2022-09-09T11:25:32;10.50;;;2.58;;
27412;SDS011;14871;52.702;5.230;2022-09-09T11:33:29;7.85;;;2.22;;
27412;SDS011;14871;52.702;5.230;2022-09-09T11:38:46;12.30;;;2.50;;
27412;SDS011;14871;52.702;5.230;2022-09-09T11:41:16;8.45;;;2.58;;
27412;SDS011;14871;52.702;5.230;2022-09-09T11:43:46;8.35;;;2.47;;
27412;SDS011;14871;52.702;5.230;2022-09-09T11:46:14;8.93;;;2.28;;
27412;SDS011;14871;52.702;5.230;2022-09-09T11:48:43;6.90;;;2.67;;
27412;SDS011;14871;52.702;5.230;2022-09-09T11:51:25;9.57;;;2.90;;
27412;SDS011;14871;52.702;5.230;2022-09-09T11:53:54;6.05;;;2.67;;
27412;SDS011;14871;52.702;5.230;2022-09-09T12:06:43;4.40;;;2.15;;
27412;SDS011;14871;52.702;5.230;2022-09-09T12:17:20;5.07;;;1.90;;
27412;SDS011;14871;52.702;5.230;2022-09-09T12:19:48;6.25;;;2.60;;
27412;SDS011;14871;52.702;5.230;2022-09-09T12:22:37;7.47;;;2.00;;
27412;SDS011;14871;52.702;5.230;2022-09-09T12:30:51;6.28;;;2.03;;
27412;SDS011;14871;52.702;5.230;2022-09-09T12:33:36;6.95;;;2.25;;
27412;SDS011;14871;52.702;5.230;2022-09-09T12:36:09;4.50;;;1.80;;
27412;SDS011;14871;52.702;5.230;2022-09-09T12:38:39;5.88;;;1.90;;
27412;SDS011;14871;52.702;5.230;2022-09-09T12:41:05;8.38;;;1.77;;
27412;SDS011;14871;52.702;5.230;2022-09-09T12:43:44;5.68;;;1.90;;
27412;SDS011;14871;52.702;5.230;2022-09-09T12:46:11;7.43;;;1.90;;
27412;SDS011;14871;52.702;5.230;2022-09-09T12:48:50;8.98;;;2.28;;
27412;SDS011;14871;52.702;5.230;2022-09-09T12:51:19;6.15;;;2.08;;
27412;SDS011;14871;52.702;5.230;2022-09-09T12:53:50;6.55;;;1.90;;
27412;SDS011;14871;52.702;5.230;2022-09-09T12:56:20;5.70;;;1.90;;
27412;SDS011;14871;52.702;5.230;2022-09-09T12:58:49;9.88;;;2.40;;
27412;SDS011;14871;52.702;5.230;2022-09-09T13:01:21;16.55;;;4.05;;
27412;SDS011;14871;52.702;5.230;2022-09-09T13:03:48;13.95;;;3.15;;
27412;SDS011;14871;52.702;5.230;2022-09-09T13:06:18;7.35;;;2.90;;
27412;SDS011;14871;52.702;5.230;2022-09-09T13:11:22;6.60;;;2.15;;
27412;SDS011;14871;52.702;5.230;2022-09-09T13:14:18;7.47;;;3.40;;
27412;SDS011;14871;52.702;5.230;2022-09-09T13:16:56;5.18;;;2.45;;
27412;SDS011;14871;52.702;5.230;2022-09-09T13:19:24;4.80;;;1.92;;
27412;SDS011;14871;52.702;5.230;2022-09-09T13:21:53;4.70;;;2.42;;
27412;SDS011;14871;52.702;5.230;2022-09-09T13:27:04;5.10;;;2.72;;
27412;SDS011;14871;52.702;5.230;2022-09-09T13:29:52;6.15;;;3.75;;
27412;SDS011;14871;52.702;5.230;2022-09-09T13:32:21;8.00;;;3.97;;
27412;SDS011;14871;52.702;5.230;2022-09-09T13:34:52;9.48;;;4.60;;
27412;SDS011;14871;52.702;5.230;2022-09-09T13:37:23;5.15;;;3.38;;
27412;SDS011;14871;52.702;5.230;2022-09-09T13:39:53;7.35;;;3.90;;
27412;SDS011;14871;52.702;5.230;2022-09-09T13:42:21;7.32;;;4.38;;
27412;SDS011;14871;52.702;5.230;2022-09-09T13:44:50;9.63;;;4.60;;
27412;SDS011;14871;52.702;5.230;2022-09-09T13:47:20;5.82;;;4.68;;
27412;SDS011;14871;52.702;5.230;2022-09-09T13:49:55;6.78;;;4.20;;
27412;SDS011;14871;52.702;5.230;2022-09-09T13:52:20;8.80;;;4.20;;
27412;SDS011;14871;52.702;5.230;2022-09-09T13:54:50;6.97;;;3.75;;
27412;SDS011;14871;52.702;5.230;2022-09-09T13:59:44;8.90;;;4.28;;
27412;SDS011;14871;52.702;5.230;2022-09-09T14:02:10;6.40;;;4.07;;
27412;SDS011;14871;52.702;5.230;2022-09-09T14:04:36;5.00;;;3.20;;
27412;SDS011;14871;52.702;5.230;2022-09-09T14:07:02;6.40;;;2.95;;
27412;SDS011;14871;52.702;5.230;2022-09-09T14:09:28;8.75;;;3.50;;
27412;SDS011;14871;52.702;5.230;2022-09-09T14:11:53;6.00;;;3.20;;
27412;SDS011;14871;52.702;5.230;2022-09-09T14:14:20;6.25;;;3.13;;
27412;SDS011;14871;52.702;5.230;2022-09-09T14:16:46;4.72;;;3.25;;
27412;SDS011;14871;52.702;5.230;2022-09-09T14:19:12;7.20;;;3.10;;
27412;SDS011;14871;52.702;5.230;2022-09-09T14:21:37;7.60;;;3.70;;
27412;SDS011;14871;52.702;5.230;2022-09-09T14:24:03;4.97;;;3.53;;
27412;SDS011;14871;52.702;5.230;2022-09-09T14:26:29;6.85;;;3.58;;
27412;SDS011;14871;52.702;5.230;2022-09-09T14:28:55;3.20;;;1.80;;
27412;SDS011;14871;52.702;5.230;2022-09-09T14:31:22;6.82;;;1.50;;
27412;SDS011;14871;52.702;5.230;2022-09-09T14:33:48;1.85;;;1.00;;
27412;SDS011;14871;52.702;5.230;2022-09-09T14:36:15;2.33;;;1.10;;
27412;SDS011;14871;52.702;5.230;2022-09-09T14:38:41;1.38;;;0.90;;
27412;SDS011;14871;52.702;5.230;2022-09-09T14:41:11;2.67;;;0.93;;
27412;SDS011;14871;52.702;5.230;2022-09-09T14:43:40;2.53;;;1.15;;
27412;SDS011;14871;52.702;5.230;2022-09-09T14:46:06;1.83;;;1.05;;
27412;SDS011;14871;52.702;5.230;2022-09-09T14:48:33;3.28;;;1.73;;
27412;SDS011;14871;52.702;5.230;2022-09-09T14:51:19;4.88;;;1.40;;
27412;SDS011;14871;52.702;5.230;2022-09-09T14:53:47;3.78;;;1.90;;
27412;SDS011;14871;52.702;5.230;2022-09-09T14:56:14;3.17;;;2.58;;
27412;SDS011;14871;52.702;5.230;2022-09-09T14:58:41;4.57;;;2.70;;
27412;SDS011;14871;52.702;5.230;2022-09-09T15:01:08;3.95;;;2.90;;
27412;SDS011;14871;52.702;5.230;2022-09-09T15:03:36;5.63;;;3.30;;
27412;SDS011;14871;52.702;5.230;2022-09-09T15:06:08;5.25;;;2.90;;
27412;SDS011;14871;52.702;5.230;2022-09-09T15:08:36;5.55;;;3.35;;
27412;SDS011;14871;52.702;5.230;2022-09-09T15:11:03;8.05;;;3.35;;
27412;SDS011;14871;52.702;5.230;2022-09-09T15:13:29;3.30;;;2.50;;
27412;SDS011;14871;52.702;5.230;2022-09-09T15:15:55;6.43;;;3.00;;
27412;SDS011;14871;52.702;5.230;2022-09-09T15:18:22;4.95;;;2.92;;
27412;SDS011;14871;52.702;5.230;2022-09-09T15:20:48;5.55;;;2.70;;
27412;SDS011;14871;52.702;5.230;2022-09-09T15:23:14;4.55;;;2.20;;
27412;SDS011;14871;52.702;5.230;2022-09-09T15:25:54;5.57;;;2.22;;
27412;SDS011;14871;52.702;5.230;2022-09-09T15:28:21;5.05;;;2.42;;
27412;SDS011;14871;52.702;5.230;2022-09-09T15:30:51;4.72;;;1.92;;
27412;SDS011;14871;52.702;5.230;2022-09-09T15:33:18;6.72;;;2.65;;
27412;SDS011;14871;52.702;5.230;2022-09-09T15:35:44;3.92;;;2.25;;
27412;SDS011;14871;52.702;5.230;2022-09-09T15:38:10;4.63;;;2.28;;
27412;SDS011;14871;52.702;5.230;2022-09-09T15:40:38;4.53;;;2.40;;
27412;SDS011;14871;52.702;5.230;2022-09-09T15:43:07;6.80;;;2.40;;
27412;SDS011;14871;52.702;5.230;2022-09-09T15:45:34;5.50;;;2.53;;
27412;SDS011;14871;52.702;5.230;2022-09-09T15:48:00;8.60;;;2.30;;
27412;SDS011;14871;52.702;5.230;2022-09-09T15:50:26;8.38;;;2.63;;
27412;SDS011;14871;52.702;5.230;2022-09-09T15:52:53;3.92;;;2.40;;
27412;SDS011;14871;52.702;5.230;2022-09-09T15:55:19;6.55;;;2.60;;
27412;SDS011;14871;52.702;5.230;2022-09-09T15:57:50;6.88;;;2.83;;
27412;SDS011;14871;52.702;5.230;2022-09-09T16:00:18;8.05;;;2.80;;
27412;SDS011;14871;52.702;5.230;2022-09-09T16:02:44;5.93;;;2.45;;
27412;SDS011;14871;52.702;5.230;2022-09-09T16:05:11;5.35;;;2.78;;
27412;SDS011;14871;52.702;5.230;2022-09-09T16:07:37;8.35;;;3.70;;
27412;SDS011;14871;52.702;5.230;2022-09-09T16:10:03;3.28;;;2.80;;
27412;SDS011;14871;52.702;5.230;2022-09-09T16:12:28;5.60;;;3.47;;
27412;SDS011;14871;52.702;5.230;2022-09-09T16:14:54;4.65;;;2.78;;
27412;SDS011;14871;52.702;5.230;2022-09-09T16:17:20;4.78;;;2.78;;
27412;SDS011;14871;52.702;5.230;2022-09-09T16:19:46;4.30;;;3.17;;
27412;SDS011;14871;52.702;5.230;2022-09-09T16:22:12;6.65;;;2.85;;
27412;SDS011;14871;52.702;5.230;2022-09-09T16:24:40;4.88;;;2.97;;
27412;SDS011;14871;52.702;5.230;2022-09-09T16:27:06;3.33;;;2.53;;
27412;SDS011;14871;52.702;5.230;2022-09-09T16:29:31;5.05;;;2.88;;
27412;SDS011;14871;52.702;5.230;2022-09-09T16:31:57;7.25;;;2.63;;
27412;SDS011;14871;52.702;5.230;2022-09-09T16:34:23;4.55;;;2.00;;
27412;SDS011;14871;52.702;5.230;2022-09-09T16:36:50;5.03;;;1.67;;
27412;SDS011;14871;52.702;5.230;2022-09-09T16:39:17;3.65;;;1.10;;
27412;SDS011;14871;52.702;5.230;2022-09-09T16:41:44;4.90;;;1.60;;
27412;SDS011;14871;52.702;5.230;2022-09-09T16:44:12;4.30;;;1.40;;
27412;SDS011;14871;52.702;5.230;2022-09-09T16:46:41;3.42;;;1.20;;
27412;SDS011;14871;52.702;5.230;2022-09-09T16:49:09;4.93;;;1.10;;
27412;SDS011;14871;52.702;5.230;2022-09-09T16:51:39;4.80;;;1.05;;
27412;SDS011;14871;52.702;5.230;2022-09-09T16:54:10;3.05;;;1.20;;
27412;SDS011;14871;52.702;5.230;2022-09-09T16:56:39;3.58;;;1.40;;
27412;SDS011;14871;52.702;5.230;2022-09-09T16:59:08;8.05;;;1.42;;
27412;SDS011;14871;52.702;5.230;2022-09-09T17:01:36;5.38;;;1.67;;
27412;SDS011;14871;52.702;5.230;2022-09-09T17:04:06;3.45;;;1.17;;
27412;SDS011;14871;52.702;5.230;2022-09-09T17:06:38;6.63;;;1.30;;
27412;SDS011;14871;52.702;5.230;2022-09-09T17:09:07;4.82;;;1.20;;
27412;SDS011;14871;52.702;5.230;2022-09-09T17:11:35;5.38;;;1.40;;
27412;SDS011;14871;52.702;5.230;2022-09-09T17:14:03;4.18;;;1.42;;